createdAt,value
2018-09-03T00:01:55.017Z,88.66
2018-09-03T00:04:22.882Z,89.00
2018-09-03T00:06:50.766Z,90.00
2018-09-03T00:09:18.686Z,90.06
2018-09-03T00:11:46.587Z,90.47
2018-09-03T00:14:14.666Z,89.45
2018-09-03T00:16:42.559Z,89.16
2018-09-03T00:19:10.447Z,89.70
2018-09-03T00:21:38.385Z,89.64
2018-09-03T00:24:06.203Z,89.95
2018-09-03T00:26:33.880Z,89.46
2018-09-03T00:29:01.626Z,87.83
2018-09-03T00:31:34.793Z,88.49
2018-09-03T00:34:08.093Z,88.39
2018-09-03T00:36:41.288Z,88.54
2018-09-03T00:39:14.579Z,88.44
2018-09-03T00:41:47.780Z,88.11
2018-09-03T00:44:20.975Z,87.23
2018-09-03T00:46:54.199Z,88.19
2018-09-03T00:49:22.133Z,88.99
2018-09-03T00:51:49.818Z,89.35
2018-09-03T00:54:17.517Z,88.75
2018-09-03T00:56:45.263Z,88.72
2018-09-03T00:59:12.969Z,88.54
2018-09-03T01:01:40.679Z,88.29
2018-09-03T01:04:08.465Z,89.16
2018-09-03T01:06:36.175Z,88.91
2018-09-03T01:09:05.011Z,88.45
2018-09-03T01:11:32.743Z,88.65
2018-09-03T01:14:00.443Z,89.03
2018-09-03T01:16:28.211Z,88.90
2018-09-03T01:18:56.644Z,88.64
2018-09-03T01:21:25.333Z,88.47
2018-09-03T01:23:53.467Z,88.88
2018-09-03T01:26:21.177Z,88.42
2018-09-03T01:28:48.897Z,88.84
2018-09-03T01:31:19.583Z,89.15
2018-09-03T01:33:49.489Z,88.74
2018-09-03T01:36:17.625Z,88.72
2018-09-03T01:38:45.373Z,89.13
2018-09-03T01:41:13.233Z,89.14
2018-09-03T01:43:40.944Z,88.96
2018-09-03T01:48:43.257Z,89.25
2018-09-03T01:51:11.009Z,88.79
2018-09-03T01:53:38.956Z,87.93
2018-09-03T01:56:07.364Z,88.61
2018-09-03T01:58:35.082Z,88.67
2018-09-03T02:01:03.009Z,88.55
2018-09-03T02:03:30.776Z,87.84
2018-09-03T02:05:58.501Z,87.93
2018-09-03T02:08:26.347Z,87.63
2018-09-03T02:10:54.056Z,88.23
2018-09-03T02:13:21.859Z,88.36
2018-09-03T02:15:49.596Z,88.48
2018-09-03T02:18:17.364Z,88.62
2018-09-03T02:20:45.131Z,88.94
2018-09-03T02:23:12.875Z,88.90
2018-09-03T02:25:40.604Z,88.38
2018-09-03T02:28:08.345Z,88.39
2018-09-03T02:30:36.188Z,88.29
2018-09-03T02:33:04.151Z,88.93
2018-09-03T02:35:31.847Z,88.50
2018-09-03T02:37:59.545Z,89.92
2018-09-03T02:40:27.285Z,89.07
2018-09-03T02:42:55.051Z,89.01
2018-09-03T02:45:22.715Z,88.05
2018-09-03T02:47:50.393Z,89.16
2018-09-03T02:50:18.173Z,88.50
2018-09-03T02:52:45.867Z,89.05
2018-09-03T02:55:13.592Z,89.55
2018-09-03T02:57:41.323Z,89.58
2018-09-03T03:00:09.120Z,88.73
2018-09-03T03:02:36.839Z,89.34
2018-09-03T03:05:05.113Z,89.29
2018-09-03T03:07:32.830Z,88.62
2018-09-03T03:10:00.548Z,89.36
2018-09-03T03:12:28.341Z,90.03
2018-09-03T03:14:56.985Z,89.42
2018-09-03T03:17:24.796Z,88.75
2018-09-03T03:19:52.539Z,88.87
2018-09-03T03:22:20.452Z,89.33
2018-09-03T03:24:48.327Z,89.73
2018-09-03T03:27:16.404Z,90.40
2018-09-03T03:29:44.190Z,90.18
2018-09-03T03:32:11.936Z,89.38
2018-09-03T03:34:39.623Z,89.98
2018-09-03T03:37:07.708Z,90.07
2018-09-03T03:39:35.482Z,90.45
2018-09-03T03:42:03.190Z,89.83
2018-09-03T03:44:30.902Z,89.36
2018-09-03T03:46:58.716Z,88.61
2018-09-03T03:49:26.468Z,88.92
2018-09-03T03:51:54.202Z,88.20
2018-09-03T03:54:21.928Z,87.45
2018-09-03T03:56:49.732Z,88.57
2018-09-03T03:59:17.413Z,89.07
2018-09-03T04:01:45.193Z,89.01
2018-09-03T04:04:12.877Z,90.09
2018-09-03T04:06:40.592Z,89.89
2018-09-03T04:09:09.779Z,89.97
2018-09-03T04:11:37.545Z,90.35
2018-09-03T04:14:05.247Z,90.34
2018-09-03T04:16:32.961Z,90.49
2018-09-03T04:19:00.644Z,90.83
2018-09-03T04:21:28.361Z,90.57
2018-09-03T04:23:56.233Z,90.53
2018-09-03T04:26:23.944Z,90.26
2018-09-03T04:28:51.775Z,90.37
2018-09-03T04:31:19.680Z,90.44
2018-09-03T04:33:47.421Z,90.76
2018-09-03T04:36:15.178Z,90.51
2018-09-03T04:38:43.026Z,90.14
2018-09-03T04:41:10.752Z,90.00
2018-09-03T04:43:38.480Z,90.24
2018-09-03T04:46:06.340Z,90.47
2018-09-03T04:48:34.124Z,90.64
2018-09-03T04:51:01.843Z,90.89
2018-09-03T04:53:29.641Z,90.41
2018-09-03T04:55:57.348Z,90.57
2018-09-03T04:58:25.090Z,90.47
2018-09-03T05:00:52.816Z,90.64
2018-09-03T05:03:20.549Z,90.61
2018-09-03T05:05:48.346Z,90.49
2018-09-03T05:08:16.120Z,90.19
2018-09-03T05:10:43.924Z,90.70
2018-09-03T05:13:11.607Z,90.39
2018-09-03T05:15:39.334Z,90.58
2018-09-03T05:18:07.124Z,90.09
2018-09-03T05:20:34.984Z,90.59
2018-09-03T05:23:02.776Z,90.17
2018-09-03T05:25:30.492Z,89.43
2018-09-03T05:27:58.200Z,89.50
2018-09-03T05:30:25.920Z,89.40
2018-09-03T05:32:53.734Z,89.59
2018-09-03T05:35:21.424Z,89.64
2018-09-03T05:37:49.146Z,89.33
2018-09-03T05:40:16.891Z,89.53
2018-09-03T05:42:44.564Z,88.82
2018-09-03T05:45:12.285Z,88.45
2018-09-03T05:47:40.017Z,88.78
2018-09-03T05:50:07.768Z,87.80
2018-09-03T05:52:35.495Z,87.51
2018-09-03T05:55:03.232Z,87.93
2018-09-03T05:57:30.934Z,87.92
2018-09-03T05:59:58.640Z,87.35
2018-09-03T06:02:26.349Z,86.20
2018-09-03T06:04:54.138Z,85.45
2018-09-03T06:07:21.884Z,84.80
2018-09-03T06:09:49.588Z,84.02
2018-09-03T06:12:17.309Z,83.68
2018-09-03T06:14:45.045Z,83.40
2018-09-03T06:17:12.735Z,82.89
2018-09-03T06:19:40.444Z,81.75
2018-09-03T06:22:08.325Z,81.18
2018-09-03T06:24:36.080Z,81.12
2018-09-03T06:27:03.799Z,80.02
2018-09-03T06:29:31.583Z,79.43
2018-09-03T06:31:59.289Z,78.48
2018-09-03T06:34:27.000Z,79.32
2018-09-03T06:36:54.761Z,79.28
2018-09-03T06:39:22.484Z,78.34
2018-09-03T06:41:50.207Z,76.65
2018-09-03T06:44:17.941Z,74.65
2018-09-03T06:46:45.738Z,73.93
2018-09-03T06:49:13.576Z,73.51
2018-09-03T06:51:41.300Z,72.04
2018-09-03T06:54:09.148Z,70.96
2018-09-03T06:56:37.947Z,71.00
2018-09-03T06:59:05.736Z,71.22
2018-09-03T07:01:34.099Z,67.56
2018-09-03T07:04:01.860Z,68.43
2018-09-03T07:06:29.591Z,67.51
2018-09-03T07:08:57.412Z,68.14
2018-09-03T07:11:25.163Z,67.00
2018-09-03T07:13:52.893Z,65.67
2018-09-03T07:16:20.615Z,64.69
2018-09-03T07:18:48.346Z,64.58
2018-09-03T07:21:16.102Z,64.72
2018-09-03T07:23:43.804Z,61.48
2018-09-03T07:26:11.660Z,62.58
2018-09-03T07:28:39.455Z,60.76
2018-09-03T07:31:07.167Z,58.23
2018-09-03T07:33:34.985Z,60.22
2018-09-03T07:36:02.738Z,59.71
2018-09-03T07:38:30.507Z,59.39
2018-09-03T07:40:58.281Z,58.50
2018-09-03T07:43:26.123Z,57.24
2018-09-03T07:45:53.892Z,55.40
2018-09-03T07:48:21.626Z,57.97
2018-09-03T07:50:49.380Z,56.17
2018-09-03T07:53:17.095Z,55.75
2018-09-03T07:55:44.808Z,55.61
2018-09-03T07:58:12.548Z,52.94
2018-09-03T08:00:40.313Z,54.22
2018-09-03T08:03:08.061Z,53.08
2018-09-03T08:05:35.809Z,53.39
2018-09-03T08:08:03.588Z,49.96
2018-09-03T08:10:31.375Z,52.05
2018-09-03T08:12:59.153Z,50.03
2018-09-03T08:15:26.891Z,49.99
2018-09-03T08:17:54.622Z,47.44
2018-09-03T08:20:22.409Z,48.44
2018-09-03T08:22:50.151Z,48.09
2018-09-03T08:25:17.870Z,47.96
2018-09-03T08:27:45.624Z,48.38
2018-09-03T08:30:13.366Z,46.61
2018-09-03T08:32:41.220Z,45.20
2018-09-03T08:35:09.125Z,47.66
2018-09-03T08:37:36.841Z,45.56
2018-09-03T08:40:04.817Z,46.47
2018-09-03T08:42:32.639Z,46.23
2018-09-03T08:45:00.393Z,45.35
2018-09-03T08:47:28.107Z,44.51
2018-09-03T08:49:56.022Z,44.64
2018-09-03T08:52:23.790Z,46.78
2018-09-03T08:54:51.544Z,44.97
2018-09-03T08:57:19.270Z,47.68
2018-09-03T08:59:47.125Z,45.01
2018-09-03T09:02:14.842Z,45.39
2018-09-03T09:04:42.605Z,45.42
2018-09-03T09:07:10.443Z,45.48
2018-09-03T09:09:38.256Z,44.01
2018-09-03T09:12:05.988Z,44.97
2018-09-03T09:14:33.777Z,44.16
2018-09-03T09:17:01.503Z,43.73
2018-09-03T09:19:29.278Z,43.96
2018-09-03T09:21:57.035Z,45.46
2018-09-03T09:24:24.765Z,44.62
2018-09-03T09:26:52.520Z,44.39
2018-09-03T09:29:20.337Z,44.59
2018-09-03T09:31:48.050Z,44.42
2018-09-03T09:34:15.767Z,43.20
2018-09-03T09:36:43.576Z,44.40
2018-09-03T09:39:11.304Z,42.89
2018-09-03T09:41:39.052Z,44.32
2018-09-03T09:44:06.770Z,44.31
2018-09-03T09:46:34.594Z,44.22
2018-09-03T09:49:02.340Z,44.45
2018-09-03T09:51:30.072Z,42.32
2018-09-03T09:53:58.293Z,43.45
2018-09-03T09:56:26.420Z,43.68
2018-09-03T09:58:54.365Z,43.83
2018-09-03T10:01:27.848Z,44.15
2018-09-03T10:03:55.681Z,43.01
2018-09-03T10:06:23.489Z,43.43
2018-09-03T10:08:51.228Z,44.47
2018-09-03T10:11:18.969Z,43.93
2018-09-03T10:13:46.723Z,43.62
2018-09-03T10:16:14.475Z,44.66
2018-09-03T10:18:42.244Z,43.83
2018-09-03T10:21:10.066Z,42.40
2018-09-03T10:23:37.760Z,43.22
2018-09-03T10:26:05.496Z,43.18
2018-09-03T10:28:33.212Z,42.68
2018-09-03T10:31:01.005Z,43.55
2018-09-03T10:33:28.683Z,42.13
2018-09-03T10:35:56.451Z,43.31
2018-09-03T10:38:24.165Z,42.89
2018-09-03T10:40:51.868Z,43.09
2018-09-03T10:43:19.594Z,42.72
2018-09-03T10:45:47.353Z,42.01
2018-09-03T10:48:16.448Z,43.22
2018-09-03T10:50:44.512Z,44.24
2018-09-03T10:53:12.194Z,44.20
2018-09-03T10:55:40.506Z,44.09
2018-09-03T10:58:08.644Z,43.24
2018-09-03T11:00:36.356Z,42.62
2018-09-03T11:03:04.139Z,43.37
2018-09-03T11:05:31.847Z,43.60
2018-09-03T11:07:59.812Z,43.49
2018-09-03T11:10:27.557Z,42.76
2018-09-03T11:12:55.331Z,41.99
2018-09-03T11:15:23.057Z,42.32
2018-09-03T11:17:50.769Z,42.35
2018-09-03T11:20:23.352Z,41.90
2018-09-03T11:22:51.093Z,42.00
2018-09-03T11:25:18.868Z,42.29
2018-09-03T11:27:47.875Z,42.83
2018-09-03T11:30:15.648Z,43.57
2018-09-03T11:32:47.819Z,43.95
2018-09-03T11:35:15.544Z,44.85
2018-09-03T11:37:43.209Z,44.73
2018-09-03T11:40:10.913Z,45.40
2018-09-03T11:42:38.635Z,45.87
2018-09-03T11:45:06.537Z,44.35
2018-09-03T11:47:34.236Z,45.42
2018-09-03T11:50:01.921Z,44.12
2018-09-03T11:52:29.684Z,44.70
2018-09-03T11:54:57.400Z,44.69
2018-09-03T11:57:25.130Z,45.43
2018-09-03T11:59:52.865Z,46.02
2018-09-03T12:02:20.583Z,44.26
2018-09-03T12:04:48.278Z,44.62
2018-09-03T12:07:16.008Z,44.87
2018-09-03T12:09:43.737Z,45.08
2018-09-03T12:12:11.446Z,45.02
2018-09-03T12:14:41.560Z,45.27
2018-09-03T12:17:09.349Z,45.00
2018-09-03T12:19:37.085Z,44.31
2018-09-03T12:22:04.797Z,44.53
2018-09-03T12:24:32.495Z,45.96
2018-09-03T12:27:00.274Z,45.77
2018-09-03T12:29:27.984Z,45.11
2018-09-03T12:31:55.833Z,44.27
2018-09-03T12:34:23.591Z,46.49
2018-09-03T12:36:51.299Z,46.84
2018-09-03T12:39:19.082Z,46.72
2018-09-03T12:41:46.828Z,46.08
2018-09-03T12:44:14.536Z,45.33
2018-09-03T12:46:42.220Z,44.46
2018-09-03T12:49:09.972Z,45.37
2018-09-03T12:51:37.653Z,46.05
2018-09-03T12:54:05.640Z,46.34
2018-09-03T12:56:33.409Z,46.69
2018-09-03T12:59:01.172Z,45.49
2018-09-03T13:01:28.944Z,45.24
2018-09-03T13:03:56.637Z,46.69
2018-09-03T13:06:24.342Z,48.36
2018-09-03T13:08:52.128Z,48.71
2018-09-03T13:11:19.833Z,48.74
2018-09-03T13:13:47.525Z,49.16
2018-09-03T13:16:15.314Z,49.67
2018-09-03T13:18:43.096Z,49.56
2018-09-03T13:21:10.908Z,51.33
2018-09-03T13:23:38.610Z,51.65
2018-09-03T13:26:06.320Z,52.36
2018-09-03T13:28:34.069Z,52.35
2018-09-03T13:31:01.796Z,51.90
2018-09-03T13:33:29.640Z,52.75
2018-09-03T13:35:57.345Z,52.56
2018-09-03T13:38:25.083Z,53.02
2018-09-03T13:40:52.981Z,54.25
2018-09-03T13:43:20.747Z,54.37
2018-09-03T13:45:48.642Z,54.75
2018-09-03T13:48:16.398Z,56.62
2018-09-03T13:50:50.720Z,56.75
2018-09-03T13:53:18.489Z,57.43
2018-09-03T13:55:46.301Z,57.75
2018-09-03T13:58:14.066Z,58.24
2018-09-03T14:00:41.836Z,58.69
2018-09-03T14:03:09.585Z,58.62
2018-09-03T14:05:37.380Z,57.81
2018-09-03T14:08:05.102Z,58.73
2018-09-03T14:10:32.867Z,58.97
2018-09-03T14:13:00.672Z,59.35
2018-09-03T14:15:28.455Z,59.79
2018-09-03T14:17:56.281Z,60.03
2018-09-03T14:20:24.044Z,60.31
2018-09-03T14:22:51.814Z,60.06
2018-09-03T14:25:19.585Z,59.71
2018-09-03T14:27:47.350Z,60.10
2018-09-03T14:30:15.089Z,60.53
2018-09-03T14:32:42.817Z,61.01
2018-09-03T14:35:10.554Z,61.63
2018-09-03T14:37:38.308Z,62.14
2018-09-03T14:40:06.181Z,61.72
2018-09-03T14:42:34.032Z,62.38
2018-09-03T14:45:01.728Z,62.61
2018-09-03T14:47:29.501Z,63.06
2018-09-03T14:49:57.393Z,64.38
2018-09-03T14:52:25.192Z,65.20
2018-09-03T14:54:53.216Z,65.67
2018-09-03T14:57:21.057Z,66.00
2018-09-03T14:59:48.931Z,65.84
2018-09-03T15:02:16.729Z,66.12
2018-09-03T15:04:44.445Z,66.85
2018-09-03T15:07:12.196Z,66.27
2018-09-03T15:09:39.937Z,66.29
2018-09-03T15:12:07.699Z,67.22
2018-09-03T15:14:35.429Z,66.09
2018-09-03T15:17:03.187Z,66.43
2018-09-03T15:19:30.994Z,66.46
2018-09-03T15:21:58.745Z,67.75
2018-09-03T15:24:26.471Z,66.89
2018-09-03T15:26:54.189Z,67.13
2018-09-03T15:29:21.911Z,68.39
2018-09-03T15:31:49.869Z,69.28
2018-09-03T15:34:17.578Z,69.69
2018-09-03T15:36:45.478Z,69.87
2018-09-03T15:39:13.405Z,69.24
2018-09-03T15:41:41.341Z,71.22
2018-09-03T15:44:09.053Z,69.72
2018-09-03T15:46:36.790Z,70.18
2018-09-03T15:49:04.562Z,70.93
2018-09-03T15:51:32.251Z,71.05
2018-09-03T15:54:00.064Z,72.19
2018-09-03T15:56:27.869Z,72.49
2018-09-03T15:58:55.560Z,72.38
2018-09-03T16:01:23.265Z,72.21
2018-09-03T16:03:51.006Z,72.44
2018-09-03T16:06:18.747Z,72.75
2018-09-03T16:08:46.440Z,73.43
2018-09-03T16:11:14.212Z,72.93
2018-09-03T16:13:41.892Z,73.43
2018-09-03T16:16:09.997Z,73.92
2018-09-03T16:18:37.850Z,75.07
2018-09-03T16:21:05.832Z,74.16
2018-09-03T16:23:33.860Z,74.15
2018-09-03T16:26:01.647Z,74.89
2018-09-03T16:28:29.409Z,74.38
2018-09-03T16:30:57.100Z,74.77
2018-09-03T16:33:25.930Z,74.67
2018-09-03T16:35:53.658Z,74.74
2018-09-03T16:38:21.348Z,75.29
2018-09-03T16:40:49.049Z,76.02
2018-09-03T16:43:16.759Z,75.88
2018-09-03T16:45:44.476Z,75.98
2018-09-03T16:48:12.238Z,76.67
2018-09-03T16:50:39.932Z,76.04
2018-09-03T16:53:07.616Z,76.89
2018-09-03T16:55:35.359Z,76.29
2018-09-03T16:58:03.027Z,77.31
2018-09-03T17:00:30.739Z,77.94
2018-09-03T17:02:58.464Z,77.03
2018-09-03T17:05:26.232Z,78.07
2018-09-03T17:07:53.992Z,77.54
2018-09-03T17:10:21.722Z,77.38
2018-09-03T17:12:49.527Z,77.91
2018-09-03T17:15:17.252Z,78.16
2018-09-03T17:17:45.016Z,78.05
2018-09-03T17:20:12.712Z,77.75
2018-09-03T17:22:40.408Z,77.81
2018-09-03T17:25:08.152Z,79.34
2018-09-03T17:27:35.868Z,79.79
2018-09-03T17:30:03.656Z,79.39
2018-09-03T17:32:31.417Z,80.11
2018-09-03T17:34:59.112Z,79.48
2018-09-03T17:37:26.814Z,80.04
2018-09-03T17:39:54.529Z,80.53
2018-09-03T17:42:22.207Z,80.20
2018-09-03T17:44:50.024Z,80.67
2018-09-03T17:47:17.817Z,79.99
2018-09-03T17:49:45.592Z,79.68
2018-09-03T17:52:13.287Z,79.78
2018-09-03T17:54:41.095Z,81.20
2018-09-03T17:57:08.773Z,80.72
2018-09-03T17:59:36.464Z,79.45
2018-09-03T18:02:04.205Z,80.55
2018-09-03T18:04:31.948Z,80.85
2018-09-03T18:06:59.645Z,80.75
2018-09-03T18:09:27.362Z,81.02
2018-09-03T18:11:55.050Z,81.47
2018-09-03T18:14:22.720Z,82.65
2018-09-03T18:16:50.619Z,82.12
2018-09-03T18:19:18.311Z,81.46
2018-09-03T18:21:46.099Z,82.43
2018-09-03T18:24:13.820Z,82.63
2018-09-03T18:26:41.527Z,82.03
2018-09-03T18:29:09.321Z,83.22
2018-09-03T18:31:37.008Z,82.89
2018-09-03T18:34:04.781Z,81.54
2018-09-03T18:36:32.516Z,80.50
2018-09-03T18:39:00.204Z,80.54
2018-09-03T18:41:27.883Z,80.16
2018-09-03T18:43:55.622Z,81.94
2018-09-03T18:46:23.312Z,81.92
2018-09-03T18:48:51.024Z,83.26
2018-09-03T18:51:18.803Z,82.50
2018-09-03T18:53:46.505Z,82.62
2018-09-03T18:56:14.495Z,81.69
2018-09-03T18:58:42.208Z,82.94
2018-09-03T19:01:09.911Z,82.77
2018-09-03T19:03:37.616Z,82.27
2018-09-03T19:06:05.722Z,81.90
2018-09-03T19:08:33.452Z,81.35
2018-09-03T19:11:01.142Z,81.32
2018-09-03T19:13:29.109Z,81.15
2018-09-03T19:15:56.866Z,80.65
2018-09-03T19:18:24.576Z,81.02
2018-09-03T19:20:52.494Z,81.46
2018-09-03T19:23:20.206Z,81.50
2018-09-03T19:25:47.892Z,82.17
2018-09-03T19:28:15.642Z,83.08
2018-09-03T19:30:43.344Z,82.63
2018-09-03T19:33:11.016Z,83.32
2018-09-03T19:35:38.736Z,82.10
2018-09-03T19:38:06.472Z,82.14
2018-09-03T19:40:34.183Z,81.80
2018-09-03T19:43:01.867Z,81.65
2018-09-03T19:45:29.585Z,83.22
2018-09-03T19:47:57.257Z,84.24
2018-09-03T19:50:24.977Z,84.52
2018-09-03T19:52:52.684Z,84.37
2018-09-03T19:55:20.412Z,83.92
2018-09-03T19:57:48.088Z,83.53
2018-09-03T20:00:15.760Z,82.86
2018-09-03T20:02:43.508Z,83.67
2018-09-03T20:05:11.245Z,83.72
2018-09-03T20:07:39.019Z,83.25
2018-09-03T20:10:06.860Z,83.79
2018-09-03T20:12:34.636Z,84.66
2018-09-03T20:15:02.408Z,85.71
2018-09-03T20:17:30.123Z,85.76
2018-09-03T20:19:57.858Z,85.32
2018-09-03T20:22:25.566Z,85.64
2018-09-03T20:24:53.267Z,86.30
2018-09-03T20:27:20.952Z,85.61
2018-09-03T20:29:48.666Z,85.36
2018-09-03T20:32:16.347Z,85.11
2018-09-03T20:34:44.028Z,85.45
2018-09-03T20:37:11.707Z,85.58
2018-09-03T20:39:39.472Z,85.30
2018-09-03T20:42:07.404Z,86.08
2018-09-03T20:44:35.151Z,84.15
2018-09-03T20:47:02.908Z,83.93
2018-09-03T20:49:30.611Z,85.55
2018-09-03T20:51:58.324Z,85.59
2018-09-03T20:54:26.005Z,85.34
2018-09-03T20:56:53.775Z,85.04
2018-09-03T20:59:21.503Z,86.00
2018-09-03T21:01:49.196Z,86.11
2018-09-03T21:04:16.965Z,86.85
2018-09-03T21:06:44.740Z,87.75
2018-09-03T21:09:12.441Z,87.08
2018-09-03T21:11:40.147Z,85.30
2018-09-03T21:14:07.901Z,87.20
2018-09-03T21:16:35.551Z,87.67
2018-09-03T21:19:03.492Z,87.30
2018-09-03T21:21:31.331Z,87.74
2018-09-03T21:23:59.099Z,87.91
2018-09-03T21:26:26.797Z,87.63
2018-09-03T21:28:54.488Z,87.26
2018-09-03T21:31:22.164Z,88.17
2018-09-03T21:33:49.853Z,88.09
2018-09-03T21:36:17.525Z,88.00
2018-09-03T21:38:45.213Z,88.19
2018-09-03T21:41:12.996Z,87.89
2018-09-03T21:43:40.694Z,87.72
2018-09-03T21:46:08.763Z,88.32
2018-09-03T21:48:36.469Z,89.35
2018-09-03T21:51:04.171Z,87.76
2018-09-03T21:53:31.928Z,88.24
2018-09-03T21:55:59.745Z,88.20
2018-09-03T21:58:27.711Z,88.05
2018-09-03T22:00:55.428Z,88.40
2018-09-03T22:03:23.120Z,88.93
2018-09-03T22:05:50.807Z,88.37
2018-09-03T22:08:18.537Z,88.07
2018-09-03T22:10:46.224Z,88.36
2018-09-03T22:13:13.902Z,89.29
2018-09-03T22:15:41.620Z,89.20
2018-09-03T22:18:09.859Z,88.58
2018-09-03T22:20:37.904Z,88.48
2018-09-03T22:23:05.820Z,88.72
2018-09-03T22:25:33.500Z,88.75
2018-09-03T22:28:01.267Z,89.58
2018-09-03T22:30:29.116Z,90.12
2018-09-03T22:32:56.788Z,90.26
2018-09-03T22:35:24.493Z,90.08
2018-09-03T22:37:52.288Z,90.08
2018-09-03T22:40:19.947Z,89.45
2018-09-03T22:42:47.607Z,89.29
2018-09-03T22:45:15.364Z,89.23
2018-09-03T22:47:43.040Z,89.06
2018-09-03T22:50:10.756Z,89.41
2018-09-03T22:52:38.435Z,89.21
2018-09-03T22:55:06.229Z,89.55
2018-09-03T22:57:33.912Z,89.80
2018-09-03T23:00:01.656Z,89.37
2018-09-03T23:02:29.443Z,89.50
2018-09-03T23:04:57.176Z,89.48
2018-09-03T23:07:24.889Z,89.65
2018-09-03T23:09:52.567Z,89.29
2018-09-03T23:12:20.253Z,89.22
2018-09-03T23:14:47.959Z,90.17
2018-09-03T23:17:15.655Z,89.46
2018-09-03T23:19:43.364Z,89.50
2018-09-03T23:22:11.089Z,89.54
2018-09-03T23:24:38.776Z,89.51
2018-09-03T23:27:06.462Z,89.63
2018-09-03T23:29:34.237Z,89.65
2018-09-03T23:32:02.161Z,88.93
2018-09-03T23:34:29.844Z,89.27
2018-09-03T23:36:57.528Z,89.41
2018-09-03T23:39:25.215Z,89.87
2018-09-03T23:41:52.910Z,90.05
2018-09-03T23:44:20.673Z,90.38
2018-09-03T23:46:48.368Z,90.33
2018-09-03T23:49:16.064Z,90.03
2018-09-03T23:51:43.735Z,90.66
2018-09-03T23:54:11.512Z,91.29
2018-09-03T23:56:39.235Z,91.97
2018-09-03T23:59:06.975Z,93.28
